Time;durP1;ratioP1;P1;durP2;ratioP2;P2;SDS_P1;SDS_P2;PMS_P1;PMS_P2;Temp;Humidity;BMP_temperature;BMP_pressure;BME280_temperature;BME280_humidity;BME280_pressure;Samples;Min_cycle;Max_cycle;Signal;HPM_P1;HPM_P2
2021/03/10 15:39:46;;;;;;;6.40;5.80;;;13.80;57.80;;;;;;6252373;22;20479;-75
2021/03/10 15:42:12;;;;;;;10.00;6.47;;;14.00;69.10;;;;;;6256623;22;21205;-70
2021/03/10 15:44:38;;;;;;;7.87;4.40;;;15.30;63.70;;;;;;6260107;22;20522;-71
2021/03/10 15:47:03;;;;;;;7.03;3.87;;;16.40;82.10;;;;;;6233485;23;20179;-67
2021/03/10 15:49:30;;;;;;;5.00;4.50;;;17.40;89.10;;;;;;6231827;23;20148;-69
2021/03/10 15:51:56;;;;;;;5.13;3.63;;;18.30;91.10;;;;;;6219789;23;20602;-70
2021/03/10 15:54:21;;;;;;;4.67;3.50;;;19.10;91.50;;;;;;6185448;23;20410;-74
2021/03/10 15:56:47;;;;;;;4.40;3.57;;;19.70;91.80;;;;;;6227172;22;20572;-71
2021/03/10 15:59:13;;;;;;;6.40;3.77;;;20.40;90.60;;;;;;6231711;23;20155;-72
2021/03/10 16:01:38;;;;;;;5.50;4.17;;;20.80;90.90;;;;;;6230497;23;20206;-72
2021/03/10 16:04:04;;;;;;;4.83;3.70;;;21.30;89.80;;;;;;6206004;23;20185;-71
2021/03/10 16:06:30;;;;;;;3.70;3.17;;;21.70;88.40;;;;;;6206339;23;20191;-73
2021/03/10 16:08:56;;;;;;;3.60;3.00;;;22.00;86.70;;;;;;6231942;23;20166;-71
2021/03/10 16:11:21;;;;;;;4.20;3.70;;;22.40;86.10;;;;;;6233782;23;20167;-75
2021/03/10 16:13:47;;;;;;;8.97;3.73;;;22.60;84.10;;;;;;6232077;23;20217;-71
2021/03/10 16:16:13;;;;;;;5.43;4.00;;;22.80;83.40;;;;;;6204770;23;20175;-73
2021/03/10 16:18:39;;;;;;;5.90;3.40;;;23.00;82.00;;;;;;6231483;23;20655;-72
2021/03/10 16:21:05;;;;;;;4.30;3.67;;;23.10;80.50;;;;;;6232230;23;20451;-72
2021/03/10 16:23:31;;;;;;;4.20;3.43;;;23.30;79.30;;;;;;6209929;23;20515;-70
2021/03/10 16:25:57;;;;;;;6.20;3.80;;;23.40;79.40;;;;;;6201673;23;20409;-72
2021/03/10 16:28:23;;;;;;;5.93;3.37;;;23.50;78.30;;;;;;6233488;23;20147;-73
2021/03/10 16:30:48;;;;;;;5.10;3.70;;;23.60;77.80;;;;;;6232260;23;20469;-73
2021/03/10 16:33:16;;;;;;;11.70;3.80;;;23.70;76.80;;;;;;6233232;23;20466;-73
2021/03/10 16:35:42;;;;;;;4.20;3.17;;;23.80;76.00;;;;;;6231163;22;20209;-71
2021/03/10 16:38:08;;;;;;;4.33;3.17;;;23.80;75.00;;;;;;6232040;23;20447;-72
2021/03/10 16:40:35;;;;;;;5.50;3.70;;;23.90;75.00;;;;;;6233336;23;20438;-73
2021/03/10 16:43:00;;;;;;;5.30;3.40;;;23.90;75.10;;;;;;6231489;23;20242;-70
2021/03/10 16:45:26;;;;;;;4.70;3.33;;;23.90;73.00;;;;;;6231137;22;20467;-72
2021/03/10 16:47:52;;;;;;;4.50;3.73;;;23.90;72.70;;;;;;6232848;23;20262;-71
2021/03/10 16:50:18;;;;;;;4.90;3.83;;;24.00;71.70;;;;;;6232908;23;20151;-71
2021/03/10 16:52:44;;;;;;;4.30;3.80;;;24.00;70.90;;;;;;6188031;23;20191;-72
2021/03/10 16:55:10;;;;;;;4.00;3.60;;;24.00;70.50;;;;;;6232394;22;20429;-72
2021/03/10 16:57:36;;;;;;;7.70;3.80;;;24.00;70.40;;;;;;6204859;23;20186;-73
2021/03/10 17:00:03;;;;;;;5.20;3.90;;;24.00;70.70;;;;;;6205341;23;20386;-71
2021/03/10 17:02:30;;;;;;;6.40;3.63;;;24.00;70.20;;;;;;6231894;23;20170;-73
2021/03/10 17:04:55;;;;;;;5.20;4.30;;;24.00;69.60;;;;;;6205672;23;20661;-73
2021/03/10 17:07:21;;;;;;;4.57;3.37;;;24.00;68.90;;;;;;6232041;23;20909;-71
2021/03/10 17:09:46;;;;;;;3.97;3.57;;;24.00;68.70;;;;;;6232177;23;20600;-74
2021/03/10 17:12:12;;;;;;;6.20;4.10;;;24.00;68.50;;;;;;6234085;23;20155;-69
2021/03/10 17:14:38;;;;;;;4.70;3.50;;;24.00;68.60;;;;;;6204391;22;20155;-72
2021/03/10 17:17:03;;;;;;;5.47;3.73;;;24.00;69.00;;;;;;6232312;23;20265;-70
2021/03/10 17:19:29;;;;;;;4.50;3.70;;;24.00;68.80;;;;;;6204687;23;20592;-70
2021/03/10 17:21:55;;;;;;;5.10;3.40;;;24.00;68.70;;;;;;6232379;23;20147;-72
2021/03/10 17:24:20;;;;;;;4.40;3.97;;;23.90;69.30;;;;;;6231346;23;20187;-75
2021/03/10 17:26:46;;;;;;;5.37;4.40;;;23.90;68.80;;;;;;6179580;23;20191;-73
2021/03/10 17:29:12;;;;;;;4.70;4.03;;;23.90;69.00;;;;;;6232152;23;20166;-73
2021/03/10 17:31:37;;;;;;;5.70;3.97;;;23.90;68.30;;;;;;6231644;23;20190;-72
2021/03/10 17:34:03;;;;;;;4.57;3.53;;;23.90;67.80;;;;;;6233229;23;20165;-72
2021/03/10 17:36:29;;;;;;;9.57;3.80;;;23.90;68.10;;;;;;6203802;23;20182;-73
2021/03/10 17:38:54;;;;;;;4.50;3.80;;;23.90;68.20;;;;;;6205225;23;20151;-71
2021/03/10 17:41:20;;;;;;;4.57;3.70;;;23.80;67.80;;;;;;6232637;23;20147;-74
2021/03/10 17:43:48;;;;;;;4.70;3.77;;;23.80;68.00;;;;;;6231590;23;20159;-75
2021/03/10 17:46:13;;;;;;;7.43;4.90;;;23.80;68.50;;;;;;6232720;22;20170;-73
2021/03/10 17:48:39;;;;;;;4.40;3.50;;;23.80;61.70;;;;;;6232483;23;20385;-73
2021/03/10 17:51:06;;;;;;;4.70;4.10;;;23.70;61.50;;;;;;6227870;23;20209;-72
2021/03/10 17:53:31;;;;;;;4.80;3.33;;;23.70;64.40;;;;;;6233305;23;20159;-72
2021/03/10 17:55:57;;;;;;;4.40;3.23;;;23.70;66.30;;;;;;6229034;22;20416;-73
2021/03/10 17:58:23;;;;;;;6.50;3.50;;;23.70;67.00;;;;;;6232245;23;20205;-73
2021/03/10 18:00:48;;;;;;;4.10;3.60;;;23.70;66.60;;;;;;6204159;23;20485;-74
2021/03/10 18:03:14;;;;;;;6.60;3.80;;;23.70;67.00;;;;;;6210325;23;20662;-72
2021/03/10 18:05:40;;;;;;;4.73;3.53;;;23.70;67.60;;;;;;6231402;22;20167;-72
2021/03/10 18:08:06;;;;;;;4.50;4.10;;;23.70;67.50;;;;;;6233159;23;20170;-71
2021/03/10 18:10:31;;;;;;;5.70;3.50;;;23.70;67.50;;;;;;6233856;23;20167;-75
2021/03/10 18:12:57;;;;;;;5.30;4.07;;;23.70;68.20;;;;;;6233013;23;20625;-74
2021/03/10 18:15:23;;;;;;;6.83;4.60;;;23.80;68.40;;;;;;6233322;22;20179;-71
2021/03/10 18:17:49;;;;;;;6.20;4.17;;;23.80;68.80;;;;;;6233412;23;20178;-71
2021/03/10 18:20:15;;;;;;;6.87;3.80;;;23.80;68.60;;;;;;6232986;23;20177;-75
2021/03/10 18:22:42;;;;;;;5.70;4.00;;;23.80;68.40;;;;;;6234561;23;20559;-72
2021/03/10 18:25:09;;;;;;;7.47;4.23;;;23.80;68.80;;;;;;6235497;22;20545;-74
2021/03/10 18:27:35;;;;;;;4.20;3.80;;;23.80;68.90;;;;;;6235068;23;20374;-70
2021/03/10 18:30:01;;;;;;;7.03;3.87;;;23.80;68.50;;;;;;6233075;23;20385;-72
2021/03/10 18:32:27;;;;;;;5.83;4.70;;;23.80;69.30;;;;;;6232644;23;20382;-71
2021/03/10 18:34:52;;;;;;;6.90;3.87;;;23.80;69.40;;;;;;6205403;23;20183;-73
2021/03/10 18:37:18;;;;;;;6.93;3.97;;;23.80;69.30;;;;;;6233269;23;20171;-72
2021/03/10 18:39:44;;;;;;;5.60;4.40;;;23.80;69.50;;;;;;6233171;23;20615;-70
2021/03/10 18:42:10;;;;;;;6.10;4.00;;;23.80;69.70;;;;;;6234212;23;20179;-73
2021/03/10 18:44:36;;;;;;;6.70;4.50;;;23.80;70.10;;;;;;6206108;22;20157;-70
2021/03/10 18:47:02;;;;;;;7.20;4.77;;;23.80;69.40;;;;;;6235015;23;20708;-74
2021/03/10 18:49:27;;;;;;;5.97;4.50;;;23.80;70.00;;;;;;6208226;23;20234;-73
2021/03/10 18:51:53;;;;;;;6.17;4.40;;;23.80;70.30;;;;;;6235068;23;20614;-72
2021/03/10 18:54:20;;;;;;;7.77;4.03;;;23.80;70.50;;;;;;6235010;23;20190;-71
2021/03/10 18:56:46;;;;;;;8.00;4.97;;;23.80;70.50;;;;;;6234082;22;20418;-70
2021/03/10 18:59:12;;;;;;;5.27;4.20;;;23.80;70.20;;;;;;6235540;23;20384;-73
2021/03/10 19:01:38;;;;;;;5.93;4.57;;;23.80;69.50;;;;;;6234683;23;20385;-72
2021/03/10 19:04:03;;;;;;;5.03;3.87;;;23.80;70.00;;;;;;6236339;23;20151;-70
2021/03/10 19:06:29;;;;;;;8.13;4.17;;;23.80;69.60;;;;;;6236223;22;20167;-72
2021/03/10 19:08:55;;;;;;;6.67;4.37;;;23.80;69.80;;;;;;6233843;23;20230;-72
2021/03/10 19:11:20;;;;;;;5.63;4.00;;;23.80;70.00;;;;;;6234717;23;20159;-74
2021/03/10 19:13:46;;;;;;;5.23;4.30;;;23.80;70.10;;;;;;6235425;23;20499;-72
2021/03/10 19:16:13;;;;;;;6.87;3.83;;;23.80;70.90;;;;;;6207948;23;20171;-73
2021/03/10 19:18:38;;;;;;;5.07;3.80;;;23.80;70.90;;;;;;6235515;23;20209;-74
2021/03/10 19:21:05;;;;;;;6.03;4.03;;;23.70;71.20;;;;;;6206819;23;20374;-73
2021/03/10 19:23:30;;;;;;;6.63;4.10;;;23.70;71.20;;;;;;6208884;23;20191;-72
2021/03/10 19:25:57;;;;;;;8.83;4.47;;;23.80;71.50;;;;;;6208948;23;20668;-74
2021/03/10 19:28:23;;;;;;;5.00;2.87;;;23.70;71.20;;;;;;6235363;23;20209;-73
2021/03/10 19:30:50;;;;;;;5.77;3.13;;;23.70;75.00;;;;;;6208917;23;20374;-74
2021/03/10 19:33:16;;;;;;;3.53;2.70;;;23.70;76.40;;;;;;6191622;23;20416;-71
2021/03/10 19:35:42;;;;;;;4.07;2.90;;;23.80;77.40;;;;;;6173099;23;20422;-77
2021/03/10 19:38:11;;;;;;;4.10;2.97;;;23.80;78.10;;;;;;6236426;23;20212;-75
2021/03/10 19:40:37;;;;;;;3.67;3.10;;;23.80;78.60;;;;;;6206882;23;20434;-78
2021/03/10 19:43:04;;;;;;;2.93;2.60;;;23.80;79.10;;;;;;6207366;23;20396;-77
2021/03/10 19:45:33;;;;;;;3.80;3.10;;;23.80;79.50;;;;;;6233693;22;20167;-76
2021/03/10 19:47:59;;;;;;;6.80;3.27;;;23.80;79.80;;;;;;6205933;23;20461;-72
2021/03/10 19:50:25;;;;;;;3.37;2.80;;;23.80;80.10;;;;;;6234466;23;20497;-75
2021/03/10 19:52:51;;;;;;;5.03;3.00;;;23.90;80.40;;;;;;6205648;23;20734;-73
2021/03/10 19:55:20;;;;;;;3.20;2.80;;;23.90;80.60;;;;;;6233868;22;20526;-74
2021/03/10 19:57:46;;;;;;;4.23;2.40;;;23.90;80.80;;;;;;6205762;23;20436;-73
2021/03/10 20:00:17;;;;;;;4.30;3.10;;;23.90;81.00;;;;;;6233630;23;20994;-74
2021/03/10 20:02:43;;;;;;;3.20;2.90;;;23.90;81.20;;;;;;6209946;23;20765;-76
2021/03/10 20:05:10;;;;;;;4.37;3.70;;;23.90;81.40;;;;;;6208856;23;20406;-78
2021/03/10 20:07:36;;;;;;;5.40;3.00;;;23.90;81.60;;;;;;6181824;23;20410;-75
2021/03/10 20:10:06;;;;;;;4.80;2.90;;;23.90;81.80;;;;;;6234342;23;20382;-72
2021/03/10 20:12:34;;;;;;;3.67;2.47;;;24.00;82.10;;;;;;6207511;23;20155;-74
2021/03/10 20:15:00;;;;;;;4.87;2.90;;;24.00;82.20;;;;;;6234071;22;20402;-76
2021/03/10 20:17:25;;;;;;;3.90;2.53;;;24.00;82.40;;;;;;6233267;23;20510;-72
2021/03/10 20:19:51;;;;;;;3.73;2.70;;;24.00;82.60;;;;;;6233696;23;20390;-74
2021/03/10 20:22:18;;;;;;;4.80;3.00;;;24.00;82.70;;;;;;6234651;23;20155;-74
2021/03/10 20:24:44;;;;;;;3.17;2.60;;;24.00;82.80;;;;;;6231368;22;20147;-77
2021/03/10 20:27:10;;;;;;;5.53;2.87;;;24.00;82.90;;;;;;6234066;23;20456;-71
2021/03/10 20:29:36;;;;;;;3.30;2.27;;;24.00;83.10;;;;;;6205545;23;20857;-70
2021/03/10 20:32:01;;;;;;;3.20;2.30;;;24.00;83.30;;;;;;6233107;23;20603;-75
2021/03/10 20:34:27;;;;;;;3.70;2.83;;;24.00;83.30;;;;;;6206729;23;20209;-75
2021/03/10 20:36:53;;;;;;;3.20;2.63;;;24.00;83.50;;;;;;6232949;22;20422;-74
2021/03/10 20:39:19;;;;;;;4.07;2.70;;;24.00;83.70;;;;;;6233984;23;20190;-74
2021/03/10 20:41:45;;;;;;;15.33;5.90;;;24.00;83.90;;;;;;6234488;23;20689;-78
2021/03/10 20:44:10;;;;;;;13.37;6.33;;;24.00;84.30;;;;;;6203584;23;20164;-71
2021/03/10 20:46:36;;;;;;;10.73;5.70;;;24.00;84.70;;;;;;6205490;23;20398;-72
2021/03/10 20:49:02;;;;;;;10.93;5.33;;;24.00;84.80;;;;;;6229661;23;20483;-73
2021/03/10 20:51:28;;;;;;;14.73;5.13;;;24.00;85.00;;;;;;6156384;23;20159;-73
2021/03/10 20:53:54;;;;;;;18.10;6.07;;;24.00;85.30;;;;;;6233036;23;20576;-70
2021/03/10 20:56:22;;;;;;;19.10;5.83;;;24.00;85.50;;;;;;6231640;22;20253;-75
2021/03/10 20:58:48;;;;;;;13.90;6.23;;;24.00;85.80;;;;;;6205626;23;20159;-72
2021/03/10 21:01:14;;;;;;;17.80;6.37;;;24.00;86.20;;;;;;6232820;23;20433;-74
2021/03/10 21:03:40;;;;;;;14.97;6.90;;;24.00;86.40;;;;;;6222398;23;20259;-71
2021/03/10 21:06:06;;;;;;;15.03;5.67;;;24.00;86.80;;;;;;6187886;23;20186;-71
2021/03/10 21:08:32;;;;;;;13.47;5.30;;;24.00;87.20;;;;;;6232589;23;20163;-71
2021/03/10 21:10:57;;;;;;;12.63;6.63;;;24.00;87.60;;;;;;6205406;23;20182;-72
2021/03/10 21:13:23;;;;;;;12.40;6.00;;;24.00;87.90;;;;;;6231276;23;20468;-71
2021/03/10 21:15:49;;;;;;;23.10;7.00;;;24.10;88.30;;;;;;6232320;22;20199;-72
2021/03/10 21:18:15;;;;;;;13.33;6.30;;;24.10;88.60;;;;;;6230846;23;20182;-72
2021/03/10 21:20:42;;;;;;;21.40;8.30;;;24.10;88.80;;;;;;6201856;23;20159;-72
2021/03/10 21:23:08;;;;;;;15.07;8.40;;;24.10;89.00;;;;;;6232997;23;21146;-74
2021/03/10 21:25:34;;;;;;;16.23;8.20;;;24.10;89.20;;;;;;6233776;22;20397;-76
2021/03/10 21:28:04;;;;;;;17.30;7.47;;;24.10;89.50;;;;;;6233258;23;20378;-75
2021/03/10 21:30:31;;;;;;;16.30;8.13;;;24.10;89.80;;;;;;6230577;23;20163;-74
2021/03/10 21:32:57;;;;;;;24.40;8.30;;;24.10;90.00;;;;;;6204723;23;20431;-72
2021/03/10 21:35:22;;;;;;;18.20;7.30;;;24.10;90.10;;;;;;6205218;23;20789;-72
2021/03/10 21:37:48;;;;;;;27.47;8.90;;;24.10;90.20;;;;;;6179257;23;20187;-73
2021/03/10 21:40:15;;;;;;;16.73;7.97;;;24.10;90.30;;;;;;6230351;23;20167;-73
2021/03/10 21:42:40;;;;;;;14.70;7.10;;;24.10;90.30;;;;;;6204519;23;20386;-70
2021/03/10 21:45:09;;;;;;;16.50;7.37;;;24.10;90.30;;;;;;6233508;22;20394;-74
2021/03/10 21:47:34;;;;;;;14.20;7.60;;;24.10;90.40;;;;;;6231556;23;20147;-70
2021/03/10 21:50:00;;;;;;;15.67;8.07;;;24.10;90.40;;;;;;6232447;23;20829;-71
2021/03/10 21:52:25;;;;;;;18.43;7.97;;;24.10;90.40;;;;;;6233028;23;20156;-70
2021/03/10 21:54:51;;;;;;;17.23;7.13;;;24.10;90.50;;;;;;6230813;22;20566;-72
2021/03/10 21:57:17;;;;;;;14.70;7.30;;;24.10;90.50;;;;;;6230836;23;20254;-72
2021/03/10 21:59:43;;;;;;;18.97;7.50;;;24.10;90.50;;;;;;6232114;23;20628;-72
2021/03/10 22:02:09;;;;;;;19.60;7.83;;;24.10;90.50;;;;;;6231637;23;20473;-73
2021/03/10 22:04:34;;;;;;;14.90;8.00;;;24.10;90.50;;;;;;6204934;22;20406;-73
2021/03/10 22:07:00;;;;;;;14.27;8.43;;;24.10;90.60;;;;;;6232094;23;20159;-71
2021/03/10 22:09:26;;;;;;;18.33;7.57;;;24.10;90.60;;;;;;6232398;23;20162;-70
2021/03/10 22:11:51;;;;;;;12.67;7.50;;;24.10;90.60;;;;;;6232415;23;20174;-71
2021/03/10 22:14:17;;;;;;;11.57;7.00;;;24.10;90.60;;;;;;6203941;23;20159;-75
2021/03/10 22:16:43;;;;;;;16.93;6.97;;;24.10;90.60;;;;;;6202165;23;20366;-74
2021/03/10 22:19:08;;;;;;;16.13;6.67;;;24.10;90.60;;;;;;6232082;23;20254;-71
2021/03/10 22:21:34;;;;;;;15.67;7.90;;;24.10;90.70;;;;;;6233852;23;20147;-70
2021/03/10 22:24:00;;;;;;;15.60;8.00;;;24.10;90.70;;;;;;6204663;23;20384;-74
2021/03/10 22:26:25;;;;;;;14.93;7.57;;;24.10;90.80;;;;;;6203946;23;20222;-71
2021/03/10 22:28:51;;;;;;;17.83;8.03;;;24.10;90.80;;;;;;6205023;23;20512;-72
2021/03/10 22:31:17;;;;;;;16.10;7.03;;;24.10;90.90;;;;;;6209046;23;20155;-74
2021/03/10 22:33:42;;;;;;;16.17;6.93;;;24.10;90.80;;;;;;6230867;23;20396;-73
2021/03/10 22:36:08;;;;;;;11.47;6.20;;;24.10;90.60;;;;;;6231541;22;20167;-72
2021/03/10 22:38:33;;;;;;;13.57;6.53;;;24.10;90.60;;;;;;6207561;23;20618;-73
2021/03/10 22:40:59;;;;;;;14.87;8.20;;;24.10;90.50;;;;;;6183485;23;20622;-74
2021/03/10 22:43:25;;;;;;;14.40;7.63;;;24.10;90.40;;;;;;6234227;23;20471;-72
2021/03/10 22:45:51;;;;;;;14.50;7.37;;;24.10;90.30;;;;;;6233347;22;20175;-73
2021/03/10 22:48:16;;;;;;;14.80;6.63;;;24.10;90.20;;;;;;6234336;23;20162;-73
2021/03/10 22:50:43;;;;;;;13.30;6.83;;;24.10;90.20;;;;;;6234548;23;20159;-72
2021/03/10 22:53:09;;;;;;;13.10;6.20;;;24.10;90.20;;;;;;6235217;23;20158;-72
2021/03/10 22:55:35;;;;;;;11.57;6.93;;;24.10;90.20;;;;;;6233938;22;20406;-71
2021/03/10 22:58:00;;;;;;;14.07;7.50;;;24.10;90.10;;;;;;6235459;23;20185;-73
2021/03/10 23:00:32;;;;;;;15.40;6.97;;;24.10;90.10;;;;;;6207631;23;20247;-73
2021/03/10 23:03:00;;;;;;;13.70;5.90;;;24.10;90.00;;;;;;6207864;23;20254;-73
2021/03/10 23:05:27;;;;;;;9.83;5.27;;;24.00;89.90;;;;;;6208801;23;20398;-74
2021/03/10 23:07:54;;;;;;;16.43;6.70;;;24.00;89.80;;;;;;6207243;23;20396;-71
2021/03/10 23:10:22;;;;;;;10.90;6.70;;;24.00;89.70;;;;;;6235659;23;20620;-73
2021/03/10 23:12:48;;;;;;;12.30;6.67;;;24.00;89.60;;;;;;6207230;23;20478;-71
2021/03/10 23:15:19;;;;;;;15.67;7.13;;;24.00;89.50;;;;;;6208867;23;20909;-74
2021/03/10 23:17:45;;;;;;;11.73;6.53;;;24.00;89.30;;;;;;6207690;23;20441;-72
2021/03/10 23:20:10;;;;;;;10.60;6.63;;;24.00;89.20;;;;;;6234695;23;20378;-72
2021/03/10 23:22:37;;;;;;;9.17;6.40;;;24.00;89.10;;;;;;6235642;23;20221;-70
2021/03/10 23:25:07;;;;;;;10.97;6.10;;;24.00;89.00;;;;;;6209028;23;20190;-71
2021/03/10 23:27:33;;;;;;;12.27;6.90;;;24.00;88.80;;;;;;6234917;23;20405;-74
2021/03/10 23:29:59;;;;;;;10.33;5.53;;;24.00;88.80;;;;;;6237745;23;20495;-72
2021/03/10 23:32:24;;;;;;;13.67;6.63;;;24.00;88.70;;;;;;6236909;23;20151;-73
2021/03/10 23:34:50;;;;;;;10.50;6.70;;;24.00;88.70;;;;;;6237031;22;20177;-71
2021/03/10 23:37:16;;;;;;;11.73;5.87;;;24.00;88.50;;;;;;6236830;23;20241;-73
2021/03/10 23:39:41;;;;;;;8.93;5.87;;;24.00;88.40;;;;;;6210265;23;20190;-72
2021/03/10 23:42:07;;;;;;;10.57;5.37;;;24.00;88.40;;;;;;6236232;23;20151;-73
2021/03/10 23:44:34;;;;;;;13.30;6.70;;;24.00;88.20;;;;;;6210464;22;20263;-72
2021/03/10 23:47:01;;;;;;;12.57;6.33;;;24.00;88.20;;;;;;6237850;23;20853;-72
2021/03/10 23:49:26;;;;;;;9.40;6.40;;;24.00;88.20;;;;;;6236447;23;20374;-72
2021/03/10 23:51:52;;;;;;;10.50;5.70;;;24.00;88.10;;;;;;6236796;23;20397;-72
2021/03/10 23:54:18;;;;;;;12.10;5.70;;;24.00;88.10;;;;;;6210572;23;20538;-71
2021/03/10 23:56:43;;;;;;;14.57;6.20;;;24.00;88.00;;;;;;6236035;22;20175;-73
2021/03/10 23:59:09;;;;;;;10.40;6.17;;;24.00;88.00;;;;;;6209939;23;20158;-70
